createdAt,value
2019-01-08T00:01:54.240Z,97877.68
2019-01-08T00:04:25.103Z,97869.23
2019-01-08T00:06:57.100Z,97862.98
2019-01-08T00:09:27.833Z,97859.87
2019-01-08T00:11:59.898Z,97851.39
2019-01-08T00:14:31.949Z,97852.76
2019-01-08T00:17:04.142Z,97843.67
2019-01-08T00:19:36.285Z,97845.23
2019-01-08T00:22:07.026Z,97826.56
2019-01-08T00:24:39.074Z,97828.55
2019-01-08T00:27:11.253Z,97823.84
2019-01-08T00:29:41.858Z,97824.42
2019-01-08T00:32:13.944Z,97826.47
2019-01-08T00:34:45.949Z,97828.28
2019-01-08T00:37:18.136Z,97807.22
2019-01-08T00:39:50.340Z,97807.22
2019-01-08T00:42:20.858Z,97798.20
2019-01-08T00:44:52.884Z,97795.64
2019-01-08T00:47:24.952Z,97787.67
2019-01-08T00:49:56.949Z,97784.75
2019-01-08T00:52:29.105Z,97776.78
2019-01-08T00:54:59.870Z,97783.20
2019-01-08T00:57:32.035Z,97765.59
2019-01-08T01:00:04.267Z,97762.41
2019-01-08T01:02:34.992Z,97763.95
2019-01-08T01:05:07.128Z,97742.22
2019-01-08T01:07:37.857Z,97742.81
2019-01-08T01:10:09.945Z,97732.40
2019-01-08T01:12:41.926Z,97742.57
2019-01-08T01:15:14.061Z,97719.48
2019-01-08T01:17:46.130Z,97711.63
2019-01-08T01:20:18.264Z,97706.66
2019-01-08T01:22:48.867Z,97691.84
2019-01-08T01:25:20.929Z,97695.21
2019-01-08T01:27:53.875Z,97677.82
2019-01-08T01:30:25.950Z,97685.20
2019-01-08T01:32:57.929Z,97687.58
2019-01-08T01:35:29.944Z,97668.00
2019-01-08T01:38:01.957Z,97670.05
2019-01-08T01:40:34.250Z,97665.09
2019-01-08T01:43:06.279Z,97653.61
2019-01-08T01:45:36.871Z,97651.77
2019-01-08T01:48:09.087Z,97647.48
2019-01-08T01:50:41.121Z,97649.45
2019-01-08T01:53:13.259Z,97649.95
2019-01-08T01:55:44.328Z,97656.72
2019-01-08T01:58:14.877Z,97617.27
2019-01-08T02:00:47.620Z,97617.27
2019-01-08T02:03:19.785Z,97619.41
2019-01-08T02:05:52.177Z,97620.12
2019-01-08T02:08:24.128Z,97612.33
2019-01-08T02:10:55.125Z,97601.98
2019-01-08T02:13:27.086Z,97583.84
2019-01-08T02:16:00.522Z,97589.74
2019-01-08T02:18:32.914Z,97581.70
2019-01-08T02:21:04.953Z,97566.41
2019-01-08T02:23:36.980Z,97558.09
2019-01-08T02:26:08.949Z,97540.73
2019-01-08T02:28:40.954Z,97558.88
2019-01-08T02:31:12.957Z,97541.75
2019-01-08T02:33:44.949Z,97535.61
2019-01-08T02:36:16.941Z,97531.68
2019-01-08T02:38:49.107Z,97531.16
2019-01-08T02:41:21.397Z,97510.80
2019-01-08T02:43:53.748Z,97506.69
2019-01-08T02:46:25.975Z,97517.89
2019-01-08T02:48:58.263Z,97496.94
2019-01-08T02:51:28.893Z,97492.17
2019-01-08T02:54:00.956Z,97497.29
2019-01-08T02:56:32.964Z,97482.73
2019-01-08T02:59:05.091Z,97474.52
2019-01-08T03:01:37.291Z,97467.84
2019-01-08T03:04:07.663Z,97466.72
2019-01-08T03:06:39.897Z,97443.22
2019-01-08T03:09:11.965Z,97452.38
2019-01-08T03:11:43.955Z,97431.85
2019-01-08T03:14:15.954Z,97431.50
2019-01-08T03:16:48.666Z,97454.41
2019-01-08T03:19:20.672Z,97423.39
2019-01-08T03:21:52.682Z,97418.23
2019-01-08T03:24:24.764Z,97413.70
2019-01-08T03:26:56.888Z,97406.59
2019-01-08T03:29:33.480Z,97386.75
2019-01-08T03:32:02.793Z,97384.36
2019-01-08T03:34:35.291Z,97373.75
2019-01-08T03:37:06.052Z,97376.80
2019-01-08T03:39:38.272Z,97364.23
2019-01-08T03:42:08.671Z,97350.31
2019-01-08T03:44:40.674Z,97365.42
2019-01-08T03:47:12.741Z,97348.95
2019-01-08T03:49:44.778Z,97354.02
2019-01-08T03:52:16.906Z,97353.36
2019-01-08T03:54:48.949Z,97344.89
2019-01-08T03:57:20.943Z,97329.23
2019-01-08T03:59:52.950Z,97326.61
2019-01-08T04:02:24.954Z,97334.51
2019-01-08T04:04:56.952Z,97310.34
2019-01-08T04:07:28.941Z,97328.86
2019-01-08T04:10:00.986Z,97318.47
2019-01-08T04:12:32.962Z,97319.89
2019-01-08T04:15:06.480Z,97318.36
2019-01-08T04:17:38.639Z,97301.28
2019-01-08T04:20:10.691Z,97301.28
2019-01-08T04:22:42.790Z,97308.56
2019-01-08T04:25:14.945Z,97292.61
2019-01-08T04:27:46.959Z,97306.25
2019-01-08T04:30:18.956Z,97308.05
2019-01-08T04:32:50.936Z,97315.41
2019-01-08T04:35:22.961Z,97307.06
2019-01-08T04:37:55.132Z,97301.92
2019-01-08T04:40:27.121Z,97304.02
2019-01-08T04:42:59.069Z,97310.58
2019-01-08T04:45:31.097Z,97326.14
2019-01-08T04:48:02.956Z,97298.89
2019-01-08T04:50:34.955Z,97290.58
2019-01-08T04:53:07.006Z,97303.17
2019-01-08T04:55:39.005Z,97280.19
2019-01-08T04:58:11.121Z,97280.19
2019-01-08T05:00:41.806Z,97259.19
2019-01-08T05:03:13.923Z,97279.20
2019-01-08T05:05:45.949Z,97269.52
2019-01-08T05:08:17.949Z,97254.19
2019-01-08T05:10:49.948Z,97276.94
2019-01-08T05:13:21.944Z,97257.98
2019-01-08T05:15:53.943Z,97239.89
2019-01-08T05:18:26.116Z,97224.40
2019-01-08T05:20:58.289Z,97219.79
2019-01-08T05:23:30.300Z,97217.00
2019-01-08T05:26:00.878Z,97225.86
2019-01-08T05:28:33.288Z,97198.23
2019-01-08T05:31:03.672Z,97216.07
2019-01-08T05:33:35.795Z,97206.92
2019-01-08T05:36:07.932Z,97206.32
2019-01-08T05:38:39.969Z,97210.59
2019-01-08T05:41:12.143Z,97187.33
2019-01-08T05:43:44.286Z,97199.38
2019-01-08T05:46:15.054Z,97172.31
2019-01-08T05:48:47.309Z,97188.05
2019-01-08T05:51:17.707Z,97184.89
2019-01-08T05:53:49.772Z,97166.70
2019-01-08T05:56:21.895Z,97164.88
2019-01-08T05:58:53.956Z,97173.85
2019-01-08T06:01:25.954Z,97168.77
2019-01-08T06:03:57.947Z,97166.42
2019-01-08T06:06:30.128Z,97161.41
2019-01-08T06:09:00.820Z,97149.44
2019-01-08T06:11:32.886Z,97149.44
2019-01-08T06:14:04.955Z,97159.73
2019-01-08T06:16:36.963Z,97173.25
2019-01-08T06:19:11.918Z,97154.38
2019-01-08T06:21:44.317Z,97149.55
2019-01-08T06:24:15.093Z,97165.33
2019-01-08T06:26:47.569Z,97145.28
2019-01-08T06:29:19.746Z,97140.01
2019-01-08T06:31:52.291Z,97137.66
2019-01-08T06:34:23.252Z,97136.34
2019-01-08T06:36:55.292Z,97133.03
2019-01-08T06:39:26.065Z,97140.14
2019-01-08T06:41:58.648Z,97112.82
2019-01-08T06:44:31.339Z,97124.41
2019-01-08T06:47:02.061Z,97125.52
2019-01-08T06:49:35.816Z,97111.83
2019-01-08T06:52:08.032Z,97104.72
2019-01-08T06:54:41.673Z,97108.89
2019-01-08T06:57:14.088Z,97104.19
2019-01-08T06:59:46.727Z,97096.91
2019-01-08T07:02:19.151Z,97099.31
2019-01-08T07:04:50.082Z,97092.39
2019-01-08T07:07:22.670Z,97085.27
2019-01-08T07:09:55.320Z,97075.69
2019-01-08T07:12:27.330Z,97072.76
2019-01-08T07:15:01.718Z,97063.72
2019-01-08T07:17:40.289Z,97066.35
2019-01-08T07:20:11.281Z,97043.23
2019-01-08T07:22:43.643Z,97049.50
2019-01-08T07:25:16.285Z,97048.73
2019-01-08T07:27:47.287Z,97035.83
2019-01-08T07:30:18.427Z,97033.53
2019-01-08T07:32:50.561Z,97028.23
2019-01-08T07:35:22.714Z,97038.01
2019-01-08T07:37:55.263Z,97038.01
2019-01-08T07:40:26.347Z,97016.25
2019-01-08T07:42:58.289Z,97016.74
2019-01-08T07:45:33.567Z,97027.84
2019-01-08T07:48:05.905Z,97003.77
2019-01-08T07:50:38.269Z,96997.80
2019-01-08T07:53:09.008Z,97008.95
2019-01-08T07:55:44.296Z,97005.44
2019-01-08T07:58:15.453Z,96990.13
2019-01-08T08:00:50.114Z,96988.59
2019-01-08T08:03:21.882Z,96982.06
2019-01-08T08:05:54.282Z,96982.06
2019-01-08T08:08:25.177Z,96977.54
2019-01-08T08:10:56.109Z,96977.54
2019-01-08T08:13:27.100Z,96969.93
2019-01-08T08:15:59.321Z,96956.55
2019-01-08T08:18:35.663Z,96955.19
2019-01-08T08:21:07.928Z,96951.27
2019-01-08T08:23:40.276Z,96951.59
2019-01-08T08:26:11.283Z,96952.03
2019-01-08T08:28:42.324Z,96942.91
2019-01-08T08:45:50.438Z,96923.84
2019-01-08T08:48:22.687Z,96941.33
2019-01-08T08:50:54.950Z,96941.33
2019-01-08T08:53:27.271Z,96944.08
2019-01-08T08:55:58.020Z,96945.75
2019-01-08T08:58:30.277Z,96938.25
2019-01-08T09:01:06.826Z,96949.19
2019-01-08T09:03:37.453Z,96933.62
2019-01-08T09:06:09.737Z,96942.61
2019-01-08T09:08:42.107Z,96942.61
2019-01-08T09:11:13.275Z,96930.56
2019-01-08T09:13:45.641Z,96935.31
2019-01-08T09:16:18.275Z,96921.56
2019-01-08T09:18:49.285Z,96920.97
2019-01-08T09:21:21.307Z,96922.91
2019-01-08T09:23:53.316Z,96916.94
2019-01-08T09:26:25.314Z,96921.02
2019-01-08T09:28:56.272Z,96932.82
2019-01-08T09:31:27.062Z,96925.03
2019-01-08T09:33:59.287Z,96920.02
2019-01-08T09:36:30.695Z,96916.42
2019-01-08T09:39:05.272Z,96913.34
2019-01-08T09:41:36.093Z,96900.84
2019-01-08T09:44:08.274Z,96900.84
2019-01-08T09:46:40.564Z,96896.53
2019-01-08T09:49:15.356Z,96896.65
2019-01-08T09:51:47.289Z,96882.41
2019-01-08T09:54:19.891Z,96887.59
2019-01-08T09:56:52.280Z,96890.03
2019-01-08T09:59:22.869Z,96872.61
2019-01-08T10:01:56.286Z,96879.16
2019-01-08T10:04:27.454Z,96864.53
2019-01-08T10:07:00.258Z,96867.72
2019-01-08T10:09:33.330Z,96863.95
2019-01-08T10:12:05.950Z,96870.70
2019-01-08T10:14:38.979Z,96855.15
2019-01-08T10:17:11.300Z,96856.67
2019-01-08T10:19:42.271Z,96839.02
2019-01-08T10:22:13.240Z,96837.97
2019-01-08T10:24:44.096Z,96835.69
2019-01-08T10:27:16.401Z,96831.69
2019-01-08T10:29:49.111Z,96827.13
2019-01-08T10:32:21.302Z,96821.50
2019-01-08T10:34:53.330Z,96821.50
2019-01-08T10:37:56.671Z,96816.02
2019-01-08T10:40:28.934Z,96816.02
2019-01-08T10:43:01.277Z,96792.57
2019-01-08T10:45:34.502Z,96782.99
2019-01-08T10:48:08.287Z,96781.62
2019-01-08T10:50:40.629Z,96779.53
2019-01-08T10:53:12.948Z,96782.59
2019-01-08T10:55:45.274Z,96814.09
2019-01-08T10:58:16.278Z,96759.91
2019-01-08T11:00:48.506Z,96747.27
2019-01-08T11:03:20.839Z,96747.27
2019-01-08T11:05:53.360Z,96732.39
2019-01-08T11:08:26.934Z,96742.74
2019-01-08T11:10:59.940Z,96721.72
2019-01-08T11:13:32.665Z,96708.02
2019-01-08T11:16:05.282Z,96701.79
2019-01-08T11:18:38.562Z,96703.14
2019-01-08T11:21:10.856Z,96701.77
2019-01-08T11:23:43.311Z,96689.44
2019-01-08T11:26:15.601Z,96680.61
2019-01-08T11:28:47.989Z,96680.61
2019-01-08T11:31:20.081Z,96679.39
2019-01-08T11:33:52.327Z,96658.98
2019-01-08T11:36:24.339Z,96646.80
2019-01-08T11:38:56.606Z,96651.97
2019-01-08T11:41:28.928Z,96650.44
2019-01-08T11:44:01.368Z,96639.78
2019-01-08T11:46:37.548Z,96629.89
2019-01-08T11:49:11.661Z,96619.98
2019-01-08T11:51:43.938Z,96620.98
2019-01-08T11:54:16.277Z,96611.92
2019-01-08T11:56:47.270Z,96599.91
2019-01-08T11:59:18.109Z,96596.58
2019-01-08T12:01:57.131Z,96583.19
2019-01-08T12:04:24.314Z,96584.45
2019-01-08T12:06:56.445Z,96584.45
2019-01-08T12:09:28.942Z,96571.86
2019-01-08T12:12:01.273Z,96571.86
2019-01-08T12:14:32.227Z,96575.08
2019-01-08T12:17:03.109Z,96581.78
2019-01-08T12:19:34.045Z,96581.22
2019-01-08T12:22:05.040Z,96573.17
2019-01-08T12:24:37.328Z,96542.61
2019-01-08T12:27:09.280Z,96543.38
2019-01-08T12:29:40.402Z,96559.96
2019-01-08T12:32:12.623Z,96545.22
2019-01-08T12:34:45.276Z,96545.22
2019-01-08T12:37:16.041Z,96569.38
2019-01-08T12:39:48.256Z,96547.19
2019-01-08T12:42:19.283Z,96547.19
2019-01-08T12:44:50.877Z,96539.90
2019-01-08T12:47:23.249Z,96534.55
2019-01-08T12:49:54.515Z,96541.39
2019-01-08T12:52:26.894Z,96543.23
2019-01-08T12:54:59.276Z,96544.28
2019-01-08T12:57:30.061Z,96554.80
2019-01-08T13:00:02.275Z,96548.55
2019-01-08T13:02:34.289Z,96545.66
2019-01-08T13:05:05.265Z,96529.69
2019-01-08T13:07:36.053Z,96525.13
2019-01-08T13:10:08.647Z,96537.77
2019-01-08T13:12:40.925Z,96542.45
2019-01-08T13:15:15.249Z,96530.91
2019-01-08T13:17:46.018Z,96529.55
2019-01-08T13:20:18.265Z,96523.30
2019-01-08T13:22:48.998Z,96517.23
2019-01-08T13:25:21.540Z,96521.94
2019-01-08T13:27:53.939Z,96547.50
2019-01-08T13:30:26.273Z,96540.64
2019-01-08T13:32:57.092Z,96515.39
2019-01-08T13:35:29.431Z,96514.77
2019-01-08T13:38:01.621Z,96527.57
2019-01-08T13:40:34.868Z,96517.98
2019-01-08T13:43:07.322Z,96516.89
2019-01-08T13:45:39.324Z,96531.05
2019-01-08T13:48:11.775Z,96527.05
2019-01-08T13:50:43.937Z,96523.56
2019-01-08T13:53:16.263Z,96517.17
2019-01-08T13:55:47.272Z,96516.23
2019-01-08T13:58:18.585Z,96518.95
2019-01-08T14:00:50.772Z,96518.17
2019-01-08T14:03:23.283Z,96518.15
2019-01-08T14:05:54.286Z,96502.47
2019-01-08T14:08:27.454Z,96498.21
2019-01-08T14:10:59.694Z,96500.75
2019-01-08T14:13:31.942Z,96500.75
2019-01-08T14:16:05.745Z,96500.72
2019-01-08T14:18:38.275Z,96508.47
2019-01-08T14:21:09.090Z,96501.89
2019-01-08T14:23:41.267Z,96495.64
2019-01-08T14:26:12.530Z,96490.80
2019-01-08T14:28:44.938Z,96498.56
2019-01-08T14:31:17.285Z,96478.43
2019-01-08T14:33:49.943Z,96474.80
2019-01-08T14:36:22.267Z,96478.94
2019-01-08T14:38:53.397Z,96469.02
2019-01-08T14:41:25.691Z,96471.33
2019-01-08T14:44:00.097Z,96472.98
2019-01-08T14:46:30.859Z,96451.34
2019-01-08T14:49:02.949Z,96467.95
2019-01-08T14:51:35.253Z,96467.34
2019-01-08T14:56:21.390Z,96463.47
2019-01-08T14:58:53.659Z,96468.95
2019-01-08T15:01:25.949Z,96453.60
2019-01-08T15:03:58.275Z,96455.55
2019-01-08T15:06:30.596Z,96464.50
2019-01-08T15:09:02.933Z,96454.41
2019-01-08T15:11:37.279Z,96450.41
2019-01-08T15:14:07.999Z,96469.19
2019-01-08T15:16:41.943Z,96473.16
2019-01-08T15:19:14.269Z,96479.25
2019-01-08T15:21:45.283Z,96468.77
2019-01-08T15:24:16.072Z,96463.92
2019-01-08T15:26:48.059Z,96462.28
2019-01-08T15:29:20.312Z,96472.09
2019-01-08T15:31:51.088Z,96468.77
2019-01-08T15:34:23.269Z,96476.08
2019-01-08T15:36:54.908Z,96472.12
2019-01-08T15:39:27.323Z,96465.39
2019-01-08T15:41:59.791Z,96459.27
2019-01-08T15:44:32.274Z,96470.23
2019-01-08T15:47:03.094Z,96451.59
2019-01-08T15:49:35.349Z,96455.14
2019-01-08T15:52:07.613Z,96475.26
2019-01-08T15:54:40.264Z,96471.48
2019-01-08T15:57:11.275Z,96471.50
2019-01-08T15:59:42.284Z,96481.67
2019-01-08T16:02:13.078Z,96486.83
2019-01-08T16:04:45.369Z,96498.23
2019-01-08T16:07:17.667Z,96486.64
2019-01-08T16:09:50.062Z,96490.55
2019-01-08T16:12:22.267Z,96492.95
2019-01-08T16:14:53.315Z,96484.43
2019-01-08T16:17:25.395Z,96486.28
2019-01-08T16:19:57.885Z,96487.66
2019-01-08T16:22:30.257Z,96487.66
2019-01-08T16:25:01.212Z,96485.98
2019-01-08T16:27:32.102Z,96488.66
2019-01-08T16:30:03.110Z,96488.66
2019-01-08T16:32:36.116Z,96479.83
2019-01-08T16:35:07.303Z,96471.94
2019-01-08T16:37:39.726Z,96468.83
2019-01-08T16:40:12.469Z,96463.47
2019-01-08T16:42:44.976Z,96451.13
2019-01-08T16:45:17.753Z,96451.13
2019-01-08T16:47:49.885Z,96473.52
2019-01-08T16:50:21.945Z,96464.84
2019-01-08T16:52:54.283Z,96475.69
2019-01-08T16:55:25.004Z,96474.92
2019-01-08T16:57:56.938Z,96470.36
2019-01-08T17:00:28.945Z,96478.64
2019-01-08T17:03:01.079Z,96493.72
2019-01-08T17:05:33.258Z,96477.57
2019-01-08T17:08:03.872Z,96473.46
2019-01-08T17:10:37.676Z,96469.20
2019-01-08T17:13:09.952Z,96469.05
2019-01-08T17:15:43.059Z,96477.88
2019-01-08T17:18:15.277Z,96458.99
2019-01-08T17:20:46.368Z,96454.27
2019-01-08T17:23:18.282Z,96460.64
2019-01-08T17:25:49.045Z,96462.16
2019-01-08T17:28:21.274Z,96453.84
2019-01-08T17:30:52.101Z,96448.79
2019-01-08T17:33:24.260Z,96452.35
2019-01-08T17:35:56.562Z,96447.30
2019-01-08T17:38:28.865Z,96429.94
2019-01-08T17:41:01.275Z,96434.69
2019-01-08T17:43:33.601Z,96449.25
2019-01-08T17:46:06.112Z,96431.27
2019-01-08T17:48:37.021Z,96436.30
2019-01-08T17:51:09.277Z,96436.30
2019-01-08T17:53:39.804Z,96423.78
2019-01-08T17:56:11.949Z,96425.27
2019-01-08T17:58:46.707Z,96434.10
2019-01-08T18:01:31.769Z,96426.79
2019-01-08T18:04:03.982Z,96426.79
2019-01-08T18:06:36.307Z,96419.63
2019-01-08T18:09:09.333Z,96419.63
2019-01-08T18:11:41.411Z,96417.98
2019-01-08T18:14:13.651Z,96420.73
2019-01-08T18:16:45.115Z,96420.73
2019-01-08T18:19:15.823Z,96430.27
2019-01-08T18:21:47.940Z,96430.27
2019-01-08T18:24:19.937Z,96432.67
2019-01-08T18:26:51.964Z,96433.83
2019-01-08T18:29:24.274Z,96423.48
2019-01-08T18:31:54.981Z,96419.19
2019-01-08T18:34:27.436Z,96433.37
2019-01-08T18:36:59.625Z,96441.75
2019-01-08T18:39:31.878Z,96441.75
2019-01-08T18:42:04.106Z,96430.66
2019-01-08T18:44:34.672Z,96422.44
2019-01-08T18:47:06.947Z,96445.88
2019-01-08T18:49:39.309Z,96436.02
2019-01-08T18:52:09.862Z,96432.36
2019-01-08T18:54:41.939Z,96432.36
2019-01-08T18:57:14.097Z,96431.30
2019-01-08T18:59:46.281Z,96442.09
2019-01-08T19:02:18.284Z,96459.60
2019-01-08T19:04:49.002Z,96444.10
2019-01-08T19:07:21.453Z,96456.91
2019-01-08T19:10:03.533Z,96449.92
2019-01-08T19:12:36.105Z,96449.92
2019-01-08T19:15:08.284Z,96426.64
2019-01-08T19:17:39.274Z,96449.92
2019-01-08T19:20:10.042Z,96464.23
2019-01-08T19:22:42.280Z,96464.23
2019-01-08T19:25:18.312Z,96454.36
2019-01-08T19:27:50.896Z,96464.09
2019-01-08T19:30:23.355Z,96462.73
2019-01-08T19:32:55.859Z,96449.49
2019-01-08T19:35:31.467Z,96450.27
2019-01-08T19:38:01.864Z,96453.15
2019-01-08T19:40:33.933Z,96438.11
2019-01-08T19:43:06.121Z,96443.89
2019-01-08T19:45:36.877Z,96435.06
2019-01-08T19:48:09.270Z,96447.53
2019-01-08T19:50:39.977Z,96436.72
2019-01-08T19:53:12.297Z,96440.96
2019-01-08T19:55:44.289Z,96436.38
2019-01-08T19:58:14.846Z,96439.11
2019-01-08T20:00:46.940Z,96452.83
2019-01-08T20:03:18.946Z,96445.98
2019-01-08T20:05:51.268Z,96445.98
2019-01-08T20:08:21.855Z,96437.00
2019-01-08T20:10:54.107Z,96443.11
2019-01-08T20:13:24.799Z,96451.63
2019-01-08T20:15:56.861Z,96428.53
2019-01-08T20:18:28.943Z,96428.53
2019-01-08T20:21:01.290Z,96435.99
2019-01-08T20:23:33.401Z,96432.65
2019-01-08T20:26:05.339Z,96431.41
2019-01-08T20:28:36.016Z,96443.27
2019-01-08T20:31:08.078Z,96424.72
2019-01-08T20:33:40.285Z,96422.30
2019-01-08T20:36:11.277Z,96428.37
2019-01-08T20:38:42.029Z,96429.42
2019-01-08T20:41:14.141Z,96426.10
2019-01-08T20:43:46.282Z,96433.23
2019-01-08T20:46:16.723Z,96426.10
2019-01-08T20:48:48.955Z,96429.75
2019-01-08T20:51:21.100Z,96429.60
2019-01-08T20:53:53.272Z,96429.62
2019-01-08T20:56:24.684Z,96413.50
2019-01-08T20:58:56.747Z,96413.50
2019-01-08T21:01:28.904Z,96424.92
2019-01-08T21:04:01.121Z,96441.50
2019-01-08T21:06:33.115Z,96436.95
2019-01-08T21:09:07.738Z,96438.33
2019-01-08T21:11:41.361Z,96425.42
2019-01-08T21:14:13.290Z,96460.84
2019-01-08T21:16:47.749Z,96460.84
2019-01-08T21:19:20.977Z,96437.27
2019-01-08T21:22:00.598Z,96450.63
2019-01-08T21:24:35.908Z,96450.50
2019-01-08T21:27:12.358Z,96443.67
2019-01-08T21:29:57.317Z,96438.05
2019-01-08T21:32:41.573Z,96452.94
2019-01-08T21:35:18.582Z,96453.99
2019-01-08T21:37:56.314Z,96446.86
2019-01-08T21:40:33.929Z,96452.17
2019-01-08T21:43:09.965Z,96443.66
2019-01-08T21:45:43.385Z,96447.16
2019-01-08T21:48:15.669Z,96451.11
2019-01-08T21:50:47.901Z,96451.11
2019-01-08T21:53:20.008Z,96452.92
2019-01-08T21:55:52.267Z,96449.87
2019-01-08T21:58:23.011Z,96453.38
2019-01-08T22:00:55.115Z,96463.38
2019-01-08T22:03:27.267Z,96465.04
2019-01-08T22:05:57.900Z,96465.20
2019-01-08T22:08:29.957Z,96468.85
2019-01-08T22:11:02.250Z,96466.72
2019-01-08T22:13:33.004Z,96462.14
2019-01-08T22:16:05.116Z,96462.14
2019-01-08T22:18:35.910Z,96464.44
2019-01-08T22:21:08.064Z,96466.12
2019-01-08T22:23:43.154Z,96475.05
2019-01-08T22:26:14.018Z,96478.42
2019-01-08T22:28:46.123Z,96472.63
2019-01-08T22:31:18.355Z,96477.66
2019-01-08T22:33:50.619Z,96480.06
2019-01-08T22:36:23.304Z,96480.06
2019-01-08T22:38:55.308Z,96485.25
2019-01-08T22:41:26.054Z,96476.25
2019-01-08T22:43:58.330Z,96485.66
2019-01-08T22:46:29.063Z,96485.97
2019-01-08T22:49:01.282Z,96478.70
2019-01-08T22:51:32.273Z,96467.44
2019-01-08T22:54:04.259Z,96473.96
2019-01-08T22:56:34.999Z,96480.52
2019-01-08T22:59:07.274Z,96473.52
2019-01-08T23:04:01.671Z,96472.30
2019-01-08T23:06:34.313Z,96473.06
2019-01-08T23:09:05.842Z,96458.20
2019-01-08T23:11:38.101Z,96455.91
2019-01-08T23:14:09.244Z,96462.58
2019-01-08T23:16:40.102Z,96450.28
2019-01-08T23:19:11.019Z,96459.68
2019-01-08T23:21:43.307Z,96449.64
2019-01-08T23:24:15.341Z,96455.42
2019-01-08T23:26:47.358Z,96436.58
2019-01-08T23:32:04.936Z,96445.05
2019-01-08T23:34:37.267Z,96445.05
2019-01-08T23:37:08.111Z,96449.30
2019-01-08T23:39:40.270Z,96450.38
2019-01-08T23:42:10.990Z,96446.08
2019-01-08T23:44:43.278Z,96455.02
2019-01-08T23:47:13.861Z,96453.82
2019-01-08T23:49:46.068Z,96441.37
2019-01-08T23:52:32.361Z,96450.92
2019-01-08T23:55:06.949Z,96446.06
2019-01-08T23:57:39.272Z,96450.76
